createdAt,value
2022-09-25T00:02:14.610Z,5.85
2022-09-25T00:07:22.360Z,4.68
2022-09-25T00:12:31.333Z,3.97
2022-09-25T00:17:34.593Z,4.50
2022-09-25T00:22:41.015Z,3.65
2022-09-25T00:27:48.366Z,4.47
2022-09-25T00:32:51.509Z,4.00
2022-09-25T00:37:57.847Z,3.10
2022-09-25T00:43:07.298Z,2.92
2022-09-25T00:48:13.198Z,3.28
2022-09-25T00:53:21.879Z,3.50
2022-09-25T00:58:29.002Z,3.58
2022-09-25T01:03:32.276Z,3.25
2022-09-25T01:08:41.484Z,2.97
2022-09-25T01:13:44.750Z,3.20
2022-09-25T01:19:08.054Z,3.20
2022-09-25T01:24:36.059Z,2.72
2022-09-25T01:29:44.237Z,2.83
2022-09-25T01:34:55.811Z,3.28
2022-09-25T01:40:12.215Z,2.80
2022-09-25T01:45:21.227Z,3.30
2022-09-25T01:50:34.700Z,3.25
2022-09-25T01:55:43.466Z,3.03
2022-09-25T02:00:56.876Z,3.58
2022-09-25T02:06:03.672Z,2.40
2022-09-25T02:11:08.146Z,2.40
2022-09-25T02:16:18.173Z,1.60
2022-09-25T02:21:38.804Z,2.20
2022-09-25T02:26:42.289Z,1.80
2022-09-25T02:31:51.084Z,2.33
2022-09-25T02:36:54.216Z,1.90
2022-09-25T02:42:16.307Z,2.00
2022-09-25T02:47:34.762Z,2.20
2022-09-25T02:52:45.417Z,2.35
2022-09-25T02:57:58.064Z,2.38
2022-09-25T03:03:04.014Z,2.70
2022-09-25T03:13:58.314Z,3.20
2022-09-25T03:19:07.376Z,3.10
2022-09-25T03:24:11.293Z,3.83
2022-09-25T03:29:14.889Z,3.00
2022-09-25T03:34:21.609Z,3.40
2022-09-25T03:39:25.010Z,3.40
2022-09-25T03:44:28.126Z,4.47
2022-09-25T03:49:41.803Z,5.18
2022-09-25T03:54:45.108Z,4.05
2022-09-25T03:59:48.226Z,5.18
2022-09-25T04:04:55.087Z,4.63
2022-09-25T04:09:58.249Z,5.05
2022-09-25T04:15:02.222Z,5.13
2022-09-25T04:20:12.053Z,5.07
2022-09-25T04:25:16.846Z,5.32
2022-09-25T04:30:23.016Z,4.72
2022-09-25T04:35:27.701Z,4.75
2022-09-25T04:40:42.174Z,4.75
2022-09-25T04:45:47.296Z,6.63
2022-09-25T04:50:53.024Z,5.38
2022-09-25T04:56:01.297Z,5.18
2022-09-25T05:01:05.219Z,5.15
2022-09-25T05:06:09.934Z,4.13
2022-09-25T05:11:13.603Z,4.30
2022-09-25T05:16:16.859Z,4.80
2022-09-25T05:21:25.632Z,4.28
2022-09-25T05:26:30.315Z,4.53
2022-09-25T05:31:33.718Z,4.20
2022-09-25T05:36:38.251Z,4.78
2022-09-25T05:41:41.419Z,3.92
2022-09-25T05:46:44.632Z,3.88
2022-09-25T05:51:49.241Z,5.18
2022-09-25T05:56:53.773Z,3.85
2022-09-25T06:01:57.067Z,4.60
2022-09-25T06:07:02.250Z,3.60
2022-09-25T06:12:06.723Z,3.72
2022-09-25T06:17:09.962Z,3.83
2022-09-25T06:22:14.501Z,4.35
2022-09-25T06:27:17.632Z,4.30
2022-09-25T06:32:23.349Z,3.97
2022-09-25T06:37:27.958Z,4.05
2022-09-25T06:42:31.041Z,4.50
2022-09-25T06:47:37.681Z,4.30
2022-09-25T06:52:44.778Z,4.40
2022-09-25T06:57:48.042Z,3.70
2022-09-25T07:03:08.883Z,3.58
2022-09-25T07:08:14.768Z,3.25
2022-09-25T07:13:18.613Z,2.65
2022-09-25T07:18:22.224Z,3.28
2022-09-25T07:23:26.708Z,2.88
2022-09-25T07:28:29.866Z,2.88
2022-09-25T07:33:37.060Z,2.70
2022-09-25T07:38:42.649Z,3.55
2022-09-25T07:43:46.007Z,2.58
2022-09-25T07:48:50.425Z,3.30
2022-09-25T07:53:55.036Z,3.13
2022-09-25T07:58:58.329Z,2.90
2022-09-25T08:04:02.912Z,2.90
2022-09-25T08:09:10.598Z,3.13
2022-09-25T08:14:15.902Z,3.20
2022-09-25T08:19:21.176Z,3.08
2022-09-25T08:24:26.784Z,2.78
2022-09-25T08:29:31.013Z,2.95
2022-09-25T08:34:41.031Z,3.13
2022-09-25T08:39:52.615Z,2.70
2022-09-25T08:45:26.886Z,2.75
2022-09-25T08:50:30.801Z,2.83
2022-09-25T08:55:55.495Z,2.85
2022-09-25T09:01:01.814Z,3.00
2022-09-25T09:06:08.890Z,2.50
2022-09-25T09:11:17.009Z,3.35
2022-09-25T09:16:28.594Z,2.85
2022-09-25T09:21:36.963Z,2.47
2022-09-25T09:27:04.532Z,3.30
2022-09-25T09:32:25.209Z,2.55
2022-09-25T09:37:36.274Z,2.30
2022-09-25T09:42:48.224Z,2.33
2022-09-25T09:48:02.469Z,2.08
2022-09-25T09:53:14.100Z,2.22
2022-09-25T09:58:25.312Z,1.85
2022-09-25T10:03:31.860Z,2.38
2022-09-25T10:08:36.145Z,2.28
2022-09-25T10:19:19.405Z,2.08
2022-09-25T10:24:49.863Z,1.90
2022-09-25T10:30:10.969Z,2.22
2022-09-25T10:35:21.419Z,2.83
2022-09-25T10:40:31.664Z,2.30
2022-09-25T10:45:40.677Z,2.45
2022-09-25T10:50:44.741Z,3.03
2022-09-25T10:55:54.809Z,3.15
2022-09-25T11:01:02.453Z,3.30
2022-09-25T11:06:09.289Z,2.88
2022-09-25T11:11:14.194Z,2.65
2022-09-25T11:16:19.823Z,2.90
2022-09-25T11:21:28.960Z,3.20
2022-09-25T11:26:35.517Z,2.95
2022-09-25T11:31:43.846Z,3.15
2022-09-25T11:36:50.495Z,3.83
2022-09-25T11:42:00.429Z,3.10
2022-09-25T11:47:11.630Z,3.33
2022-09-25T11:58:01.044Z,3.50
2022-09-25T12:03:27.028Z,3.63
2022-09-25T12:08:47.655Z,4.20
2022-09-25T12:13:59.975Z,3.35
2022-09-25T12:19:19.419Z,3.45
2022-09-25T12:24:36.035Z,4.07
2022-09-25T12:30:06.892Z,3.70
2022-09-25T12:35:28.076Z,3.53
2022-09-25T12:40:37.761Z,3.80
2022-09-25T12:45:45.585Z,3.45
2022-09-25T12:50:58.561Z,3.42
2022-09-25T12:56:13.710Z,3.53
2022-09-25T13:01:24.762Z,4.03
2022-09-25T13:06:40.636Z,4.15
2022-09-25T13:11:47.570Z,4.40
2022-09-25T13:16:51.116Z,4.03
2022-09-25T13:22:02.806Z,3.97
2022-09-25T13:27:07.122Z,4.10
2022-09-25T13:32:19.993Z,3.40
2022-09-25T13:37:31.661Z,3.67
2022-09-25T13:42:39.062Z,4.22
2022-09-25T13:48:07.250Z,4.55
2022-09-25T13:53:32.259Z,4.32
2022-09-25T13:59:03.047Z,3.92
2022-09-25T14:04:11.310Z,3.67
2022-09-25T14:09:17.812Z,4.00
2022-09-25T14:14:28.897Z,3.78
2022-09-25T14:19:34.118Z,3.47
2022-09-25T14:24:45.330Z,3.67
2022-09-25T14:29:48.589Z,3.60
2022-09-25T14:35:05.551Z,3.28
2022-09-25T14:40:20.986Z,3.63
2022-09-25T14:45:59.165Z,2.95
2022-09-25T14:51:05.915Z,3.95
2022-09-25T14:56:14.886Z,3.20
2022-09-25T15:01:30.427Z,3.70
2022-09-25T15:06:35.514Z,3.17
2022-09-25T15:11:44.717Z,3.25
2022-09-25T15:17:06.683Z,2.47
2022-09-25T15:22:13.903Z,3.30
2022-09-25T15:32:50.583Z,2.90
2022-09-25T15:38:05.741Z,3.50
2022-09-25T15:43:14.771Z,3.17
2022-09-25T15:48:25.837Z,2.97
2022-09-25T15:53:31.082Z,3.10
2022-09-25T15:58:43.900Z,4.60
2022-09-25T16:04:10.753Z,5.35
2022-09-25T16:09:31.701Z,4.15
2022-09-25T16:14:36.717Z,4.68
2022-09-25T16:19:42.634Z,5.00
2022-09-25T16:24:52.004Z,4.97
2022-09-25T16:30:03.473Z,5.40
2022-09-25T16:35:07.963Z,4.80
2022-09-25T16:40:22.921Z,4.90
2022-09-25T16:45:29.865Z,4.85
2022-09-25T16:50:39.548Z,4.55
2022-09-25T16:55:53.387Z,3.90
2022-09-25T17:00:59.012Z,5.03
2022-09-25T17:06:02.477Z,5.00
2022-09-25T17:11:06.238Z,5.45
2022-09-25T17:16:11.355Z,6.05
2022-09-25T17:21:16.323Z,5.68
2022-09-25T17:26:22.935Z,6.30
2022-09-25T17:31:27.437Z,5.72
2022-09-25T17:36:32.580Z,4.93
2022-09-25T17:41:37.397Z,3.30
2022-09-25T17:46:42.167Z,3.45
2022-09-25T17:51:45.808Z,2.90
2022-09-25T17:56:49.939Z,2.72
2022-09-25T18:01:54.937Z,2.85
2022-09-25T18:07:00.092Z,3.03
2022-09-25T18:12:03.339Z,3.72
2022-09-25T18:17:08.401Z,2.88
2022-09-25T18:22:23.581Z,3.03
2022-09-25T18:32:58.753Z,2.92
2022-09-25T18:38:01.977Z,3.10
2022-09-25T18:43:05.095Z,3.22
2022-09-25T18:48:09.569Z,3.00
2022-09-25T18:53:12.670Z,3.00
2022-09-25T18:58:15.849Z,2.88
2022-09-25T19:03:20.415Z,2.90
2022-09-25T19:08:23.608Z,2.75
2022-09-25T19:13:27.580Z,2.58
2022-09-25T19:18:36.814Z,2.17
2022-09-25T19:23:40.255Z,2.80
2022-09-25T19:28:44.064Z,2.60
2022-09-25T19:33:48.803Z,2.78
2022-09-25T19:38:52.547Z,3.50
2022-09-25T19:43:57.682Z,3.35
2022-09-25T19:49:02.395Z,3.95
2022-09-25T19:54:05.871Z,4.50
2022-09-25T19:59:10.101Z,4.13
2022-09-25T20:04:18.789Z,3.90
2022-09-25T20:09:22.519Z,3.83
2022-09-25T20:14:26.374Z,3.35
2022-09-25T20:19:30.966Z,3.97
2022-09-25T20:24:34.234Z,3.95
2022-09-25T20:29:37.322Z,4.10
2022-09-25T20:34:41.777Z,3.70
2022-09-25T20:39:45.211Z,4.03
2022-09-25T20:44:48.357Z,4.18
2022-09-25T20:49:53.055Z,3.33
2022-09-25T20:54:56.529Z,4.22
2022-09-25T21:00:01.950Z,3.90
2022-09-25T21:05:07.931Z,4.07
2022-09-25T21:10:11.222Z,4.43
2022-09-25T21:15:14.317Z,4.80
2022-09-25T21:20:19.525Z,4.53
2022-09-25T21:25:23.700Z,4.70
2022-09-25T21:30:36.831Z,4.85
2022-09-25T21:35:42.073Z,4.88
2022-09-25T21:40:45.281Z,5.07
2022-09-25T21:45:48.513Z,4.75
2022-09-25T21:50:58.170Z,4.78
2022-09-25T21:56:02.680Z,4.70
2022-09-25T22:01:07.688Z,5.30
2022-09-25T22:06:14.800Z,4.85
2022-09-25T22:11:19.136Z,5.22
2022-09-25T22:16:24.112Z,4.72
2022-09-25T22:21:31.635Z,4.75
2022-09-25T22:26:36.190Z,5.40
2022-09-25T22:31:42.989Z,5.35
2022-09-25T22:36:48.372Z,5.07
2022-09-25T22:41:53.712Z,5.60
2022-09-25T22:46:57.052Z,5.63
2022-09-25T22:52:02.328Z,5.70
2022-09-25T22:57:05.655Z,5.53
2022-09-25T23:02:08.914Z,5.18
2022-09-25T23:07:13.552Z,5.25
2022-09-25T23:12:16.645Z,5.68
2022-09-25T23:17:19.780Z,5.90
2022-09-25T23:22:25.593Z,6.25
2022-09-25T23:27:28.865Z,5.65
2022-09-25T23:32:31.971Z,6.55
2022-09-25T23:37:36.485Z,6.35
2022-09-25T23:42:39.624Z,7.43
2022-09-25T23:47:42.762Z,7.30
2022-09-25T23:52:47.204Z,7.32
2022-09-25T23:57:50.425Z,7.85
